Time;durP1;ratioP1;P1;durP2;ratioP2;P2;SDS_P1;SDS_P2;PMS_P1;PMS_P2;Temp;Humidity;BMP_temperature;BMP_pressure;BME280_temperature;BME280_humidity;BME280_pressure;Samples;Min_cycle;Max_cycle;Signal;HPM_P1;HPM_P2
2021/09/16 00:00:52;;;;;;;32.28;22.20;;;;;;;18.04;96.91;101028.69;4930851;28;20050;-54
2021/09/16 00:03:18;;;;;;;28.60;21.63;;;;;;;18.03;97.51;101021.66;4927090;28;20039;-53
2021/09/16 00:05:43;;;;;;;31.23;22.40;;;;;;;18.06;97.08;101021.06;4934415;28;20027;-54
2021/09/16 00:08:09;;;;;;;24.98;18.83;;;;;;;18.06;97.24;101018.38;4926314;28;21724;-52
2021/09/16 00:10:34;;;;;;;31.60;20.42;;;;;;;18.01;98.00;101018.44;4926242;28;20036;-56
2021/09/16 00:13:00;;;;;;;30.05;20.90;;;;;;;18.05;97.69;101019.47;4908630;29;20179;-53
2021/09/16 00:15:25;;;;;;;30.20;19.55;;;;;;;18.07;97.67;101027.31;4927536;28;20019;-51
2021/09/16 00:17:51;;;;;;;33.47;20.02;;;;;;;17.98;98.72;101029.06;4926400;28;20042;-53
2021/09/16 00:20:16;;;;;;;23.55;18.35;;;;;;;17.84;100.00;101022.72;4930209;28;20053;-52
2021/09/16 00:22:42;;;;;;;34.53;21.02;;;;;;;17.92;100.00;101022.06;4924761;28;20158;-55
2021/09/16 00:25:07;;;;;;;28.88;20.13;;;;;;;18.04;98.90;101022.47;4910037;29;20118;-55
2021/09/16 00:27:33;;;;;;;25.90;19.05;;;;;;;17.91;100.00;101012.34;4926046;28;20561;-53
2021/09/16 00:29:58;;;;;;;25.77;19.42;;;;;;;17.97;100.00;101014.72;4924553;28;20197;-51
2021/09/16 00:32:24;;;;;;;29.65;17.90;;;;;;;17.91;100.00;101015.03;4925263;28;20082;-55
2021/09/16 00:34:49;;;;;;;26.38;19.00;;;;;;;17.87;100.00;101009.41;4928421;28;20027;-54
2021/09/16 00:37:16;;;;;;;29.88;18.77;;;;;;;17.89;100.00;101009.91;4925814;28;20421;-53
2021/09/16 00:39:42;;;;;;;26.23;18.48;;;;;;;17.86;100.00;101006.97;4925478;28;20032;-53
2021/09/16 00:42:07;;;;;;;24.27;18.73;;;;;;;17.97;100.00;101001.16;4924337;29;20098;-53
2021/09/16 00:44:33;;;;;;;28.00;18.52;;;;;;;17.90;100.00;101003.41;4924382;28;20151;-50
2021/09/16 00:46:58;;;;;;;29.10;19.52;;;;;;;17.87;100.00;101005.88;4906997;28;20035;-54
2021/09/16 00:49:24;;;;;;;28.30;20.27;;;;;;;17.86;100.00;101004.28;4925295;28;20086;-55
2021/09/16 00:51:52;;;;;;;30.30;19.48;;;;;;;17.80;100.00;100996.22;4923642;28;20090;-55
2021/09/16 00:54:20;;;;;;;29.73;21.42;;;;;;;17.69;100.00;101005.56;4927097;28;20126;-52
2021/09/16 00:56:48;;;;;;;30.40;19.98;;;;;;;17.67;100.00;101002.28;4924517;28;20044;-53
2021/09/16 00:59:17;;;;;;;28.70;19.98;;;;;;;17.87;100.00;101012.13;4925663;28;20134;-52
2021/09/16 01:01:43;;;;;;;29.85;21.17;;;;;;;17.91;100.00;101009.63;4924590;28;20536;-51
2021/09/16 01:04:08;;;;;;;30.13;21.00;;;;;;;18.02;100.00;101005.69;4924082;28;20039;-52
2021/09/16 01:06:34;;;;;;;30.88;20.77;;;;;;;18.06;100.00;101006.72;4924445;28;20378;-53
2021/09/16 01:08:59;;;;;;;30.50;21.00;;;;;;;17.96;100.00;101001.44;4907848;29;20031;-52
2021/09/16 01:11:25;;;;;;;31.55;21.33;;;;;;;18.03;100.00;101004.59;4927277;28;20105;-56
2021/09/16 01:13:50;;;;;;;28.20;20.38;;;;;;;17.97;100.00;101012.00;4925250;28;20410;-55
2021/09/16 01:16:16;;;;;;;29.60;20.88;;;;;;;17.90;100.00;101006.09;4923430;28;20560;-53
2021/09/16 01:18:41;;;;;;;33.97;21.98;;;;;;;18.07;100.00;101002.91;4923567;28;20041;-53
2021/09/16 01:21:07;;;;;;;30.48;21.77;;;;;;;18.12;100.00;101000.91;4926056;28;20457;-53
2021/09/16 01:23:33;;;;;;;32.03;22.20;;;;;;;18.10;100.00;101010.44;4924275;28;20031;-54
2021/09/16 01:25:58;;;;;;;30.00;21.33;;;;;;;18.10;100.00;101003.13;4925342;28;20118;-54
2021/09/16 01:28:24;;;;;;;31.33;22.27;;;;;;;18.08;100.00;101007.22;4924438;28;20039;-54
2021/09/16 01:30:49;;;;;;;33.08;21.73;;;;;;;18.08;100.00;101009.94;4906401;29;20345;-55
2021/09/16 01:33:16;;;;;;;30.95;22.23;;;;;;;18.09;100.00;101008.84;4906071;28;21110;-51
2021/09/16 01:35:43;;;;;;;33.92;23.25;;;;;;;17.96;100.00;101017.72;4923699;28;20048;-55
2021/09/16 01:38:08;;;;;;;32.08;22.13;;;;;;;18.00;100.00;101016.84;4921121;28;20035;-54
2021/09/16 01:40:34;;;;;;;32.60;22.70;;;;;;;18.07;100.00;101011.84;4925360;28;20027;-52
2021/09/16 01:43:01;;;;;;;33.83;22.63;;;;;;;18.14;100.00;101006.09;4923298;28;20048;-51
2021/09/16 01:45:27;;;;;;;36.30;24.88;;;;;;;18.17;100.00;101016.34;4923931;28;20038;-54
2021/09/16 01:47:54;;;;;;;34.10;23.98;;;;;;;18.16;100.00;101020.16;4922485;28;20035;-55
2021/09/16 01:50:23;;;;;;;38.25;24.13;;;;;;;18.25;100.00;101018.38;4923852;28;20062;-54
2021/09/16 01:52:49;;;;;;;38.35;24.80;;;;;;;18.24;100.00;101014.06;4922793;28;20262;-55
2021/09/16 01:55:16;;;;;;;40.08;25.17;;;;;;;18.32;100.00;101018.84;4925005;28;20039;-53
2021/09/16 01:57:42;;;;;;;37.92;24.33;;;;;;;18.34;100.00;101022.06;4921364;28;20047;-55
2021/09/16 02:00:09;;;;;;;29.83;22.50;;;;;;;18.34;100.00;101021.25;4923546;28;20459;-55
2021/09/16 02:02:34;;;;;;;36.42;24.00;;;;;;;18.29;100.00;101027.53;4923504;28;20498;-52
2021/09/16 02:05:01;;;;;;;35.80;24.27;;;;;;;18.32;100.00;101020.75;4924045;28;20031;-53
2021/09/16 02:07:26;;;;;;;33.15;23.38;;;;;;;18.34;100.00;101024.78;4922853;28;20027;-52
2021/09/16 02:09:52;;;;;;;38.45;24.67;;;;;;;18.34;100.00;101019.34;4924045;28;20514;-55
2021/09/16 02:12:18;;;;;;;33.90;23.92;;;;;;;18.38;100.00;101023.09;4922745;28;20476;-55
2021/09/16 02:14:43;;;;;;;41.78;26.88;;;;;;;18.31;100.00;101019.09;4921687;28;20047;-52
2021/09/16 02:17:09;;;;;;;35.78;23.50;;;;;;;18.36;100.00;101021.78;4922495;28;20059;-56
2021/09/16 02:19:34;;;;;;;36.88;24.30;;;;;;;18.40;100.00;101017.38;4923554;28;20039;-55
2021/09/16 02:22:00;;;;;;;35.53;25.38;;;;;;;18.41;100.00;101022.50;4920564;28;20640;-55
2021/09/16 02:24:25;;;;;;;37.60;24.70;;;;;;;18.38;100.00;101023.09;4921696;28;20036;-55
2021/09/16 02:26:51;;;;;;;35.72;24.02;;;;;;;18.46;100.00;101020.81;4925357;28;20287;-54
2021/09/16 02:29:16;;;;;;;34.97;24.40;;;;;;;18.46;100.00;101023.50;4922085;28;20122;-55
2021/09/16 02:31:42;;;;;;;36.30;23.35;;;;;;;18.40;100.00;101018.16;4921386;28;20036;-53
2021/09/16 02:34:07;;;;;;;33.00;24.70;;;;;;;18.46;100.00;101020.81;4922544;28;20067;-55
2021/09/16 02:36:33;;;;;;;36.40;24.83;;;;;;;18.31;100.00;101021.81;4923976;28;20172;-53
2021/09/16 02:38:59;;;;;;;39.05;25.50;;;;;;;18.34;100.00;101022.06;4922207;28;20474;-52
2021/09/16 02:41:24;;;;;;;39.28;25.67;;;;;;;18.37;100.00;101024.19;4927963;28;20125;-52
2021/09/16 02:43:50;;;;;;;38.22;25.48;;;;;;;18.29;100.00;101024.81;4922577;28;20466;-54
2021/09/16 02:46:15;;;;;;;33.45;24.20;;;;;;;18.42;100.00;101026.81;4924987;28;20031;-53
2021/09/16 02:48:41;;;;;;;32.60;22.48;;;;;;;18.42;100.00;101021.41;4924496;29;20051;-52
2021/09/16 02:51:07;;;;;;;30.35;22.77;;;;;;;18.47;100.00;101025.13;4921052;28;20450;-53
2021/09/16 02:53:32;;;;;;;35.10;22.88;;;;;;;18.49;100.00;101033.78;4923844;28;20166;-53
2021/09/16 02:55:58;;;;;;;34.35;22.27;;;;;;;18.40;100.00;101030.94;4924244;28;20372;-54
2021/09/16 02:58:24;;;;;;;36.58;23.50;;;;;;;18.32;100.00;101035.13;4925006;28;20035;-51
2021/09/16 03:00:50;;;;;;;38.75;25.50;;;;;;;18.35;100.00;101034.53;4924200;28;20035;-56
2021/09/16 03:03:15;;;;;;;37.50;25.33;;;;;;;18.32;100.00;101037.84;4923759;28;20123;-53
2021/09/16 03:05:41;;;;;;;32.58;24.40;;;;;;;18.25;100.00;101042.78;4922600;28;20482;-56
2021/09/16 03:08:06;;;;;;;37.65;24.92;;;;;;;18.29;100.00;101043.81;4922273;28;20078;-55
2021/09/16 03:10:32;;;;;;;40.28;25.10;;;;;;;18.23;100.00;101047.72;4922250;28;20509;-52
2021/09/16 03:12:58;;;;;;;39.78;24.52;;;;;;;18.24;100.00;101052.03;4928372;28;21609;-53
2021/09/16 03:15:23;;;;;;;32.70;22.90;;;;;;;18.24;100.00;101054.75;4926520;28;20031;-54
2021/09/16 03:17:49;;;;;;;30.63;21.98;;;;;;;18.26;100.00;101057.97;4927847;28;20043;-54
2021/09/16 03:20:14;;;;;;;29.02;21.25;;;;;;;18.19;100.00;101056.72;4925515;28;20038;-55
2021/09/16 03:22:40;;;;;;;29.00;19.67;;;;;;;18.14;100.00;101067.66;4924718;28;20031;-52
2021/09/16 03:25:07;;;;;;;30.05;20.58;;;;;;;18.01;100.00;101061.00;4926456;28;20040;-52
2021/09/16 03:27:33;;;;;;;30.10;19.52;;;;;;;18.12;100.00;101071.44;4913378;28;20166;-52
2021/09/16 03:29:59;;;;;;;27.73;18.38;;;;;;;18.06;100.00;101079.94;4926966;28;20592;-52
2021/09/16 03:32:25;;;;;;;26.58;17.77;;;;;;;17.96;100.00;101070.03;4926392;28;20094;-55
2021/09/16 03:34:51;;;;;;;26.60;17.05;;;;;;;18.04;100.00;101068.56;4930181;28;20039;-52
2021/09/16 03:37:16;;;;;;;25.92;17.52;;;;;;;17.98;100.00;101081.38;4896772;28;20035;-52
2021/09/16 03:39:41;;;;;;;23.35;16.00;;;;;;;17.93;100.00;101083.31;4925444;28;20319;-52
2021/09/16 03:42:07;;;;;;;24.23;16.83;;;;;;;17.80;100.00;101082.94;4925370;28;20378;-52
2021/09/16 03:44:33;;;;;;;23.83;16.23;;;;;;;17.69;100.00;101081.44;4925184;28;20157;-51
2021/09/16 03:46:58;;;;;;;26.60;17.92;;;;;;;17.81;100.00;101081.84;4926759;28;20174;-53
2021/09/16 03:49:24;;;;;;;26.73;17.05;;;;;;;17.79;100.00;101086.75;4928658;28;20038;-55
2021/09/16 03:51:49;;;;;;;25.70;17.27;;;;;;;17.62;100.00;101093.69;4927003;28;20319;-55
2021/09/16 03:54:15;;;;;;;25.23;17.10;;;;;;;17.61;100.00;101084.75;4925462;28;20394;-55
2021/09/16 03:56:40;;;;;;;29.70;18.60;;;;;;;17.52;100.00;101086.44;4926814;28;20023;-53
2021/09/16 03:59:06;;;;;;;24.63;16.42;;;;;;;17.59;100.00;101092.31;4925164;28;20505;-55
2021/09/16 04:01:31;;;;;;;25.63;17.60;;;;;;;17.49;100.00;101092.44;4912939;29;20041;-54
2021/09/16 04:03:57;;;;;;;31.08;18.40;;;;;;;17.53;100.00;101098.91;4924853;28;20032;-53
2021/09/16 04:06:22;;;;;;;28.08;17.88;;;;;;;17.48;100.00;101096.25;4929756;28;20038;-53
2021/09/16 04:08:48;;;;;;;26.45;17.63;;;;;;;17.51;100.00;101101.09;4912602;29;20511;-52
2021/09/16 04:11:13;;;;;;;26.65;18.67;;;;;;;17.45;100.00;101094.13;4924434;28;20698;-55
2021/09/16 04:13:39;;;;;;;29.20;18.77;;;;;;;17.55;100.00;101106.75;4925747;28;20603;-54
2021/09/16 04:16:04;;;;;;;30.70;19.20;;;;;;;17.57;100.00;101104.53;4926210;28;20043;-55
2021/09/16 04:18:30;;;;;;;27.42;17.75;;;;;;;17.40;100.00;101104.97;4925736;28;20023;-52
2021/09/16 04:20:56;;;;;;;29.45;18.45;;;;;;;17.39;100.00;101108.78;4928118;28;20027;-54
2021/09/16 04:23:22;;;;;;;28.00;16.38;;;;;;;17.34;100.00;101112.34;4923219;28;20839;-52
2021/09/16 04:25:47;;;;;;;26.50;17.65;;;;;;;17.33;100.00;101115.34;4923979;28;20242;-52
2021/09/16 04:28:13;;;;;;;29.55;17.75;;;;;;;17.34;100.00;101117.75;4924527;28;20043;-55
2021/09/16 04:30:38;;;;;;;30.52;17.63;;;;;;;17.38;100.00;101121.50;4926353;28;20042;-53
2021/09/16 04:33:03;;;;;;;29.23;16.85;;;;;;;17.45;100.00;101110.38;4924283;28;20027;-52
2021/09/16 04:35:29;;;;;;;27.20;16.20;;;;;;;17.32;100.00;101116.44;4928682;28;20480;-51
2021/09/16 04:37:55;;;;;;;29.58;18.30;;;;;;;17.20;100.00;101112.19;4925085;28;20479;-55
2021/09/16 04:40:20;;;;;;;28.27;17.90;;;;;;;17.22;100.00;101120.03;4924052;28;20113;-54
2021/09/16 04:42:46;;;;;;;28.20;16.92;;;;;;;17.28;100.00;101123.50;4923614;28;20035;-55
2021/09/16 04:45:12;;;;;;;31.33;18.00;;;;;;;17.19;100.00;101126.00;4924905;28;20042;-55
2021/09/16 04:47:40;;;;;;;26.88;16.75;;;;;;;17.16;100.00;101127.38;4909512;28;20035;-54
2021/09/16 04:50:11;;;;;;;31.20;17.45;;;;;;;17.22;100.00;101128.94;4924732;28;20662;-53
2021/09/16 04:52:37;;;;;;;24.48;16.25;;;;;;;17.28;100.00;101134.34;4923257;28;20071;-54
2021/09/16 04:55:02;;;;;;;25.27;16.50;;;;;;;17.30;100.00;101132.16;4923053;28;20059;-52
2021/09/16 04:57:28;;;;;;;25.98;15.55;;;;;;;17.21;100.00;101135.47;4923522;28;20580;-55
2021/09/16 04:59:54;;;;;;;24.35;15.02;;;;;;;17.24;100.00;101139.53;4923254;28;20397;-56
2021/09/16 05:02:20;;;;;;;20.55;14.70;;;;;;;17.28;100.00;101134.34;4919163;28;20121;-51
2021/09/16 05:04:45;;;;;;;25.45;15.40;;;;;;;17.25;100.00;101143.84;4925494;28;20055;-52
2021/09/16 05:07:11;;;;;;;22.50;16.08;;;;;;;17.30;100.00;101143.81;4922862;28;20121;-54
2021/09/16 05:09:36;;;;;;;25.40;16.38;;;;;;;17.29;100.00;101136.78;4923581;28;20037;-52
2021/09/16 05:12:02;;;;;;;38.13;15.80;;;;;;;17.38;100.00;101140.47;4923998;28;20080;-53
2021/09/16 05:14:27;;;;;;;24.33;14.55;;;;;;;17.41;99.05;101139.09;4922519;28;20067;-55
2021/09/16 05:16:53;;;;;;;28.70;13.80;;;;;;;17.43;98.98;101142.34;4925399;28;20420;-54
2021/09/16 05:19:19;;;;;;;22.80;14.35;;;;;;;17.30;98.93;101151.94;4926848;29;20035;-55
2021/09/16 05:21:45;;;;;;;26.02;15.73;;;;;;;17.37;98.53;101148.88;4924645;28;20042;-53
2021/09/16 05:24:16;;;;;;;25.60;14.27;;;;;;;17.43;97.94;101150.47;4924459;28;20065;-52
2021/09/16 05:26:43;;;;;;;24.98;15.63;;;;;;;17.40;98.82;101153.72;4923969;28;20532;-52
2021/09/16 05:29:08;;;;;;;24.65;15.63;;;;;;;17.35;99.12;101156.47;4925511;28;20039;-55
2021/09/16 05:31:34;;;;;;;28.15;16.20;;;;;;;17.42;98.87;101152.38;4924558;28;20657;-53
2021/09/16 05:33:59;;;;;;;29.05;16.85;;;;;;;17.49;98.37;101160.16;4922041;28;20512;-53
2021/09/16 05:36:24;;;;;;;28.13;16.48;;;;;;;17.42;97.76;101162.41;4925864;28;20031;-53
2021/09/16 05:38:50;;;;;;;25.85;16.63;;;;;;;17.45;97.76;101157.22;4923929;28;20035;-55
2021/09/16 05:41:15;;;;;;;28.35;16.88;;;;;;;17.45;97.92;101167.25;4926738;28;20031;-55
2021/09/16 05:43:41;;;;;;;27.10;16.55;;;;;;;17.48;98.44;101166.69;4923639;29;20497;-54
2021/09/16 05:46:06;;;;;;;28.52;17.15;;;;;;;17.52;97.91;101170.44;4924621;28;20102;-56
2021/09/16 05:48:32;;;;;;;25.88;16.73;;;;;;;17.47;97.37;101163.16;4924134;28;20043;-54
2021/09/16 05:50:57;;;;;;;25.60;16.70;;;;;;;17.36;98.02;101161.63;4923629;28;20062;-51
2021/09/16 05:53:23;;;;;;;26.30;16.27;;;;;;;17.35;98.62;101167.31;4923827;28;20031;-51
2021/09/16 05:55:48;;;;;;;27.23;16.70;;;;;;;17.36;98.45;101169.75;4922238;28;20039;-55
2021/09/16 05:58:14;;;;;;;23.48;15.30;;;;;;;17.43;97.95;101172.94;4924223;28;20039;-53
2021/09/16 06:00:39;;;;;;;27.30;16.27;;;;;;;17.50;97.25;101175.31;4924169;28;20685;-54
2021/09/16 06:03:05;;;;;;;27.77;16.60;;;;;;;17.39;98.00;101171.88;4922705;28;20045;-51
2021/09/16 06:05:30;;;;;;;28.40;16.20;;;;;;;17.50;96.94;101178.03;4927706;28;20412;-53
2021/09/16 06:07:56;;;;;;;25.45;17.05;;;;;;;17.39;95.99;101176.50;4925573;28;20184;-51
2021/09/16 06:10:21;;;;;;;27.13;16.73;;;;;;;17.49;95.85;101179.13;4922871;29;20023;-54
2021/09/16 06:12:47;;;;;;;25.90;16.95;;;;;;;17.46;96.67;101177.00;4923627;28;20470;-51
2021/09/16 06:15:12;;;;;;;31.52;17.42;;;;;;;17.52;96.39;101176.66;4923237;28;20452;-52
2021/09/16 06:17:38;;;;;;;31.85;18.23;;;;;;;17.61;95.70;101179.56;4922020;28;20295;-52
2021/09/16 06:20:05;;;;;;;29.05;17.75;;;;;;;17.57;95.82;101180.41;4926197;28;20043;-52
2021/09/16 06:22:30;;;;;;;24.35;16.27;;;;;;;17.58;95.58;101176.59;4925070;28;20041;-51
2021/09/16 06:24:56;;;;;;;27.17;16.98;;;;;;;17.63;95.40;101182.81;4925264;28;20035;-53
2021/09/16 06:27:21;;;;;;;26.08;15.35;;;;;;;17.49;95.74;101179.13;4924517;28;20435;-53
2021/09/16 06:29:47;;;;;;;28.25;15.68;;;;;;;17.47;95.39;101189.44;4924612;29;20058;-53
2021/09/16 06:32:12;;;;;;;28.40;16.55;;;;;;;17.50;95.26;101188.88;4922968;28;20150;-52
2021/09/16 06:34:38;;;;;;;25.38;15.80;;;;;;;17.58;94.95;101188.25;4923006;28;20082;-54
2021/09/16 06:37:03;;;;;;;30.65;17.13;;;;;;;17.55;94.94;101194.25;4925565;29;20287;-52
2021/09/16 06:39:29;;;;;;;26.35;16.80;;;;;;;17.56;95.33;101201.28;4922581;29;20465;-52
2021/09/16 06:41:55;;;;;;;29.58;17.27;;;;;;;17.66;95.09;101200.41;4921309;28;20031;-53
2021/09/16 06:44:20;;;;;;;30.15;18.35;;;;;;;17.80;94.45;101199.50;4922066;28;20075;-54
2021/09/16 06:46:46;;;;;;;29.77;17.80;;;;;;;18.02;93.82;101192.78;4931636;28;20535;-53
2021/09/16 06:49:11;;;;;;;26.05;15.88;;;;;;;18.22;92.90;101200.69;4926736;28;20435;-52
2021/09/16 06:51:37;;;;;;;30.92;17.42;;;;;;;18.32;92.56;101197.88;4928409;28;20083;-54
2021/09/16 06:54:02;;;;;;;25.17;15.88;;;;;;;18.50;91.34;101199.03;4927608;28;20374;-54
2021/09/16 06:56:28;;;;;;;27.45;16.63;;;;;;;18.44;91.45;101200.16;4922557;28;20525;-54
2021/09/16 06:58:53;;;;;;;26.63;17.10;;;;;;;18.27;92.43;101206.03;4915189;29;20023;-52
2021/09/16 07:01:19;;;;;;;32.22;17.35;;;;;;;18.30;92.14;101200.03;4925730;29;20401;-52
2021/09/16 07:03:47;;;;;;;29.25;17.00;;;;;;;18.32;92.31;101203.31;4928053;29;20063;-53
2021/09/16 07:06:13;;;;;;;25.38;17.70;;;;;;;18.33;92.20;101194.06;4929361;28;20081;-52
2021/09/16 07:08:38;;;;;;;27.33;17.30;;;;;;;18.04;94.04;101198.72;4927425;28;20050;-52
2021/09/16 07:11:04;;;;;;;26.48;17.80;;;;;;;18.02;93.91;101195.47;4928577;28;20031;-53
2021/09/16 07:13:30;;;;;;;25.65;16.63;;;;;;;18.03;93.63;101199.81;4927499;28;20042;-53
2021/09/16 07:15:55;;;;;;;25.00;15.65;;;;;;;18.00;91.96;101206.63;4927038;29;20032;-54
2021/09/16 07:18:21;;;;;;;22.85;14.98;;;;;;;17.83;92.53;101210.84;4926366;29;20110;-52
2021/09/16 07:20:46;;;;;;;28.42;16.63;;;;;;;17.71;93.37;101219.34;4925485;28;20031;-52
2021/09/16 07:23:12;;;;;;;26.58;15.75;;;;;;;17.83;93.53;101218.97;4925732;28;20061;-52
2021/09/16 07:25:37;;;;;;;24.90;17.20;;;;;;;17.55;95.19;101220.53;4926292;28;20054;-53
2021/09/16 07:28:03;;;;;;;30.05;17.60;;;;;;;17.79;93.73;101222.28;4927422;28;20187;-54
2021/09/16 07:30:28;;;;;;;30.63;17.40;;;;;;;17.43;95.94;101219.00;4926763;28;20367;-54
2021/09/16 07:32:54;;;;;;;22.23;15.20;;;;;;;17.40;94.85;101235.00;4924132;28;20035;-54
2021/09/16 07:35:19;;;;;;;20.52;14.35;;;;;;;17.36;94.98;101237.44;4924897;29;20638;-54
2021/09/16 07:37:45;;;;;;;19.23;11.95;;;;;;;17.39;93.66;101233.38;4925011;28;20031;-54
2021/09/16 07:40:11;;;;;;;15.10;11.18;;;;;;;17.26;91.04;101240.25;4925203;29;20481;-52
2021/09/16 07:42:37;;;;;;;19.73;11.45;;;;;;;17.24;91.64;101241.63;4927131;29;20028;-53
2021/09/16 07:45:03;;;;;;;16.08;11.98;;;;;;;17.20;92.70;101255.69;4926070;29;20171;-52
2021/09/16 07:47:28;;;;;;;17.13;11.70;;;;;;;17.25;92.82;101245.94;4925140;28;20031;-52
2021/09/16 07:49:54;;;;;;;17.35;11.63;;;;;;;17.15;92.79;101247.59;4924476;28;20023;-53
2021/09/16 07:52:19;;;;;;;14.63;10.50;;;;;;;17.27;91.92;101251.88;4925170;29;20036;-54
2021/09/16 07:54:45;;;;;;;15.70;9.80;;;;;;;17.20;90.10;101250.28;4924414;28;20035;-53
2021/09/16 07:57:10;;;;;;;16.45;8.98;;;;;;;17.20;89.44;101249.47;4924715;28;20039;-53
2021/09/16 07:59:36;;;;;;;14.48;9.18;;;;;;;17.07;90.17;101250.91;4926837;28;20212;-52
2021/09/16 08:02:01;;;;;;;18.05;8.60;;;;;;;17.01;90.50;101256.63;4926589;28;20509;-53
2021/09/16 08:04:27;;;;;;;12.70;8.35;;;;;;;16.96;90.89;101262.88;4924613;28;21098;-52
2021/09/16 08:06:53;;;;;;;14.10;9.60;;;;;;;16.92;92.44;101259.13;4925808;28;20289;-51
2021/09/16 08:09:18;;;;;;;16.42;11.15;;;;;;;16.68;96.42;101267.03;4927186;28;20753;-53
2021/09/16 08:11:44;;;;;;;18.13;12.10;;;;;;;16.55;98.09;101276.53;4926031;28;20037;-54
2021/09/16 08:14:10;;;;;;;19.98;12.20;;;;;;;16.54;98.88;101268.69;4924996;28;20039;-54
2021/09/16 08:16:36;;;;;;;14.15;10.45;;;;;;;16.58;97.67;101273.28;4928124;28;20035;-52
2021/09/16 08:19:03;;;;;;;14.13;9.52;;;;;;;16.60;97.59;101273.81;4925160;28;20023;-53
2021/09/16 08:21:29;;;;;;;16.35;8.73;;;;;;;16.70;96.65;101280.31;4925151;28;20429;-52
2021/09/16 08:23:55;;;;;;;12.30;9.13;;;;;;;16.68;95.96;101271.63;4925141;28;20031;-51
2021/09/16 08:26:22;;;;;;;17.48;8.82;;;;;;;16.86;95.44;101279.94;4923846;28;20039;-53
2021/09/16 08:28:48;;;;;;;11.55;6.70;;;;;;;16.83;92.11;101274.28;4925455;29;20504;-52
2021/09/16 08:31:14;;;;;;;8.30;6.35;;;;;;;17.00;91.34;101274.75;4922322;28;20070;-51
2021/09/16 08:33:40;;;;;;;9.10;5.82;;;;;;;17.29;90.25;101279.50;4922985;28;20412;-55
2021/09/16 08:36:05;;;;;;;8.45;5.75;;;;;;;17.25;89.74;101273.84;4920360;28;20037;-54
2021/09/16 08:38:31;;;;;;;8.27;5.80;;;;;;;17.34;88.31;101269.44;4922609;28;20027;-54
2021/09/16 08:40:57;;;;;;;15.63;6.43;;;;;;;17.40;88.25;101272.91;4925641;28;21616;-55
2021/09/16 08:43:29;;;;;;;9.32;6.10;;;;;;;17.56;87.96;101274.44;4924031;28;20422;-54
2021/09/16 08:45:55;;;;;;;8.60;6.43;;;;;;;17.81;87.50;101279.72;4925521;28;20086;-52
2021/09/16 08:48:21;;;;;;;13.35;6.20;;;;;;;17.50;85.59;101278.28;4924539;28;20118;-54
2021/09/16 08:50:46;;;;;;;8.98;5.90;;;;;;;17.48;85.73;101281.25;4923876;29;20023;-53
2021/09/16 08:53:17;;;;;;;11.80;6.30;;;;;;;17.85;85.08;101279.13;4924169;29;20709;-54
2021/09/16 08:55:45;;;;;;;8.20;5.38;;;;;;;18.10;83.63;101281.63;4921740;29;20039;-53
2021/09/16 08:58:11;;;;;;;7.75;4.95;;;;;;;18.26;83.46;101283.09;4922838;28;20036;-51
2021/09/16 09:00:37;;;;;;;6.00;4.70;;;;;;;18.40;82.01;101283.22;4926194;28;20032;-53
2021/09/16 09:03:02;;;;;;;6.57;4.90;;;;;;;18.56;81.34;101278.44;4923996;29;20301;-54
2021/09/16 09:05:29;;;;;;;8.68;4.70;;;;;;;18.87;80.36;101273.50;4924487;29;20033;-51
2021/09/16 09:07:57;;;;;;;5.22;4.07;;;;;;;18.58;78.94;101273.53;4924252;29;20042;-53
2021/09/16 09:10:43;;;;;;;6.55;3.92;;;;;;;18.38;78.99;101288.94;4925029;29;20164;-55
2021/09/16 09:13:22;;;;;;;6.95;4.20;;;;;;;18.81;77.92;101286.31;4922134;29;20294;-52
2021/09/16 09:15:58;;;;;;;7.07;4.68;;;;;;;18.22;79.55;101278.53;4926986;28;20161;-53
2021/09/16 09:18:24;;;;;;;7.40;4.60;;;;;;;18.63;78.04;101274.31;4925619;28;20505;-54
2021/09/16 09:20:59;;;;;;;5.10;3.95;;;;;;;18.84;77.04;101269.44;4924089;28;20039;-54
2021/09/16 09:23:32;;;;;;;9.38;3.90;;;;;;;19.22;75.88;101266.81;4924812;28;20567;-51
2021/09/16 09:25:59;;;;;;;9.75;4.35;;;;;;;18.99;75.36;101268.44;4924621;28;20150;-54
2021/09/16 09:28:34;;;;;;;5.13;3.72;;;;;;;19.35;74.86;101267.97;4923873;29;21134;-54
2021/09/16 09:31:17;;;;;;;5.80;3.38;;;;;;;18.84;73.08;101264.00;4922925;28;20105;-54
2021/09/16 09:33:43;;;;;;;8.48;3.42;;;;;;;19.41;74.51;101258.66;4923531;28;20494;-53
2021/09/16 09:36:12;;;;;;;8.05;3.45;;;;;;;19.38;74.06;101254.59;4925355;28;20118;-51
2021/09/16 09:39:07;;;;;;;7.43;3.70;;;;;;;19.33;74.63;101260.91;4924654;28;20110;-53
2021/09/16 09:41:35;;;;;;;5.10;3.40;;;;;;;19.38;73.40;101262.72;4912884;29;20051;-52
2021/09/16 09:44:13;;;;;;;5.05;3.22;;;;;;;19.68;72.91;101261.50;4923276;29;20035;-51
2021/09/16 09:46:53;;;;;;;5.53;3.03;;;;;;;18.84;72.80;101274.88;4923646;28;20595;-54
2021/09/16 09:49:24;;;;;;;4.35;3.00;;;;;;;18.94;71.66;101272.03;4924893;29;20046;-54
2021/09/16 09:51:54;;;;;;;5.97;3.17;;;;;;;19.39;71.09;101268.97;4923553;29;20100;-54
2021/09/16 09:54:38;;;;;;;6.25;2.30;;;;;;;19.75;69.19;101261.09;4922681;29;20527;-54
2021/09/16 09:57:12;;;;;;;3.35;2.00;;;;;;;19.85;69.44;101261.75;4924436;29;20126;-52
2021/09/16 10:00:18;;;;;;;5.05;2.50;;;;;;;19.17;69.88;101267.66;4921747;28;20040;-53
2021/09/16 10:02:54;;;;;;;4.60;2.80;;;;;;;19.08;69.13;101279.47;4922460;29;20036;-53
2021/09/16 10:05:31;;;;;;;5.57;2.13;;;;;;;19.28;69.38;101268.34;4922882;28;20611;-52
2021/09/16 10:08:09;;;;;;;3.45;2.70;;;;;;;19.37;68.35;101273.91;4922823;28;20038;-53
2021/09/16 10:10:37;;;;;;;4.25;2.95;;;;;;;19.07;70.30;101283.31;4925662;29;20511;-53
2021/09/16 10:13:04;;;;;;;6.55;3.05;;;;;;;19.36;69.26;101281.25;4923900;28;20039;-53
2021/09/16 10:15:29;;;;;;;5.43;3.47;;;;;;;19.37;69.28;101282.88;4922625;28;20024;-55
2021/09/16 10:17:55;;;;;;;3.80;2.92;;;;;;;19.71;67.04;101273.69;4922726;29;20663;-53
2021/09/16 10:20:23;;;;;;;5.20;3.10;;;;;;;19.70;66.64;101272.06;4926798;29;20643;-52
2021/09/16 10:22:51;;;;;;;7.00;3.00;;;;;;;20.19;66.78;101280.50;4923464;28;20545;-54
2021/09/16 10:25:19;;;;;;;3.63;2.88;;;;;;;20.12;67.64;101282.81;4927133;29;20030;-54
2021/09/16 10:27:47;;;;;;;5.43;3.78;;;;;;;20.26;68.17;101287.44;4922381;28;20514;-54
2021/09/16 10:30:22;;;;;;;6.13;3.15;;;;;;;20.03;67.43;101279.13;4923030;29;20488;-55
2021/09/16 10:33:13;;;;;;;4.93;2.95;;;;;;;20.38;66.64;101285.06;4922370;28;20105;-55
2021/09/16 10:35:41;;;;;;;6.63;2.72;;;;;;;20.38;65.34;101283.13;4911191;29;20074;-54
2021/09/16 10:38:28;;;;;;;3.08;2.10;;;;;;;19.76;64.24;101281.78;4922212;29;20036;-52
2021/09/16 10:41:20;;;;;;;5.63;2.58;;;;;;;19.64;64.63;101284.16;4925029;28;20385;-54
2021/09/16 10:43:52;;;;;;;4.18;2.00;;;;;;;20.04;62.83;101286.19;4921291;28;20250;-54
2021/09/16 10:46:29;;;;;;;4.45;2.47;;;;;;;19.93;63.40;101282.03;4920454;28;20066;-53
2021/09/16 10:48:57;;;;;;;2.08;1.88;;;;;;;20.31;62.56;101284.66;4920835;29;20057;-53
2021/09/16 10:51:59;;;;;;;4.40;2.00;;;;;;;20.55;60.47;101285.28;4925386;29;20031;-51
2021/09/16 10:54:26;;;;;;;2.72;1.80;;;;;;;20.91;60.43;101279.13;4903651;29;20079;-52
2021/09/16 10:57:04;;;;;;;2.22;2.03;;;;;;;20.92;60.58;101278.03;4923828;29;20762;-52
2021/09/16 11:00:05;;;;;;;1.92;1.50;;;;;;;20.74;60.46;101280.56;4923007;28;20069;-52
2021/09/16 11:02:30;;;;;;;5.10;1.40;;;;;;;21.05;60.07;101283.47;4883265;29;20291;-52
2021/09/16 11:04:58;;;;;;;3.00;1.65;;;;;;;21.01;59.79;101287.09;4913968;29;20617;-53
2021/09/16 11:07:37;;;;;;;3.72;2.03;;;;;;;21.63;59.00;101282.72;4920232;28;20479;-54
2021/09/16 11:12:53;;;;;;;1.88;1.27;;;;;;;20.94;55.73;101287.50;4919253;28;20459;-55